Airfield :
LOGIN :

Register | Disclaimer

   EN    FR    IT 

 










Legend :    VFR   Marginal VFR   IFR   Intensive IFR   Very Intensive IFR
Visi :
Ceiling :
>= 8 km
>= 3000ft
5 to 8 km
1000 to 3000 ft
1500m to 5 km
500 to 1000 ft
800 to 1500m
200 to 500 ft
< 800m
< 200 ft
Symbols :   Thunderstorms  Fog  Heavy snow  Heavy precipitations  Wind > 20 kt
SIGMETs :     Misc.  Thunderstorms  Icing  Turbulence  Mountain Waves  Volcanic Ashes







- Airport Elevation : 505 ft
- IATA code : SXB
- Download approach charts


LFST - Strasbourg

CURRENT METAR :
  • 201530Z AUTO 13003KT 080V180 9999 FEW052 SCT062 BKN074 24/16 Q1013 TEMPO 1500 TSRA SCT040CB

EXPIRED METARs :
  • 201430Z AUTO 17004KT 130V210 9999 VCTS FEW056/// SCT066/// BKN078/// ///CB 22/16 Q1013 TEMPO 1500 TSRA
  • 201400Z AUTO 15008KT 120V180 9999 ///CB 23/17 Q1013 TEMPO 1500 TSRA
  • 201330Z AUTO 14007KT 110V170 9999 VCTS FEW050/// SCT062/// BKN076/// ///CB 22/17 Q1013 TEMPO 1500 TSRA
  • 201300Z AUTO 15007KT 110V190 9999 VCTS BKN058/// BKN072/// BKN088/// ///CB 21/15 Q1014 TEMPO 1500 TSRA

TAF TAF LFST
Valid from the 20 at 12:00 until the 21 at 12:00 UTC


201100Z 2012/2112 27006KT 9999 SCT040 BKN080
TEMPO 2012/2022 18010KT 4000 SHRA FEW030CB
PROB40
TEMPO 2012/2018 1500 TSRA SCT040CB
No reported NOTAMs for that airfield.



MET'MAP, your aeronautical weather chart ! - Copyright ORBIFLY December 2007 - Disclaimer

ORBIFLY MET'MAP TEAM :

Programming & Development : Alexandra Zaïnal
Concept & Development : Baudouin d'Aumeries
Co-Development & Prog : Marc-Olivier Méhu
Technical & hardware support : Manuel Goepfert

Contact : metmap@orbifly.com




SOURCES & CREDITS :

   NOAA